sensor_id;sensor_type;location;lat;lon;timestamp;pressure;altitude;pressure_sealevel;temperature;humidity
30021;BME280;16861;52.294;7.760;2023-03-24T00:02:43;98267.44;;;12.60;77.83
30021;BME280;16861;52.294;7.760;2023-03-24T00:08:43;98268.81;;;12.64;78.42
30021;BME280;16861;52.294;7.760;2023-03-24T00:11:31;98261.34;;;12.60;78.00
30021;BME280;16861;52.294;7.760;2023-03-24T00:14:27;98254.09;;;12.62;78.72
30021;BME280;16861;52.294;7.760;2023-03-24T00:20:24;98249.53;;;12.64;78.84
30021;BME280;16861;52.294;7.760;2023-03-24T00:23:28;98248.41;;;12.67;78.94
30021;BME280;16861;52.294;7.760;2023-03-24T00:26:35;98240.19;;;12.70;79.06
30021;BME280;16861;52.294;7.760;2023-03-24T00:29:09;98233.25;;;12.69;79.50
30021;BME280;16861;52.294;7.760;2023-03-24T00:31:39;98225.47;;;12.67;79.67
30021;BME280;16861;52.294;7.760;2023-03-24T00:34:26;98228.13;;;12.67;79.51
30021;BME280;16861;52.294;7.760;2023-03-24T00:37:51;98219.50;;;12.65;79.42
30021;BME280;16861;52.294;7.760;2023-03-24T00:40:44;98213.38;;;12.64;79.56
30021;BME280;16861;52.294;7.760;2023-03-24T00:43:35;98207.97;;;12.66;79.73
30021;BME280;16861;52.294;7.760;2023-03-24T00:46:15;98212.41;;;12.66;80.10
30021;BME280;16861;52.294;7.760;2023-03-24T00:49:26;98202.56;;;12.68;80.41
30021;BME280;16861;52.294;7.760;2023-03-24T00:53:32;98194.63;;;12.68;80.19
30021;BME280;16861;52.294;7.760;2023-03-24T00:56:21;98179.34;;;12.71;80.47
30021;BME280;16861;52.294;7.760;2023-03-24T00:59:18;98193.53;;;12.70;80.53
30021;BME280;16861;52.294;7.760;2023-03-24T01:01:49;98181.84;;;12.73;81.00
30021;BME280;16861;52.294;7.760;2023-03-24T01:08:20;98178.22;;;12.74;80.98
30021;BME280;16861;52.294;7.760;2023-03-24T01:10:48;98181.44;;;12.77;81.16
30021;BME280;16861;52.294;7.760;2023-03-24T01:13:37;98182.13;;;12.80;81.24
30021;BME280;16861;52.294;7.760;2023-03-24T01:16:45;98170.03;;;12.77;80.93
30021;BME280;16861;52.294;7.760;2023-03-24T01:19:50;98158.50;;;12.78;80.77
30021;BME280;16861;52.294;7.760;2023-03-24T01:22:17;98162.38;;;12.84;81.59
30021;BME280;16861;52.294;7.760;2023-03-24T01:25:01;98168.78;;;12.81;81.00
30021;BME280;16861;52.294;7.760;2023-03-24T01:28:21;98155.16;;;12.86;81.30
30021;BME280;16861;52.294;7.760;2023-03-24T01:30:51;98149.72;;;12.87;81.61
30021;BME280;16861;52.294;7.760;2023-03-24T01:33:22;98146.13;;;12.88;81.75
30021;BME280;16861;52.294;7.760;2023-03-24T01:35:48;98137.22;;;12.89;81.91
30021;BME280;16861;52.294;7.760;2023-03-24T01:38:21;98138.19;;;12.88;81.70
30021;BME280;16861;52.294;7.760;2023-03-24T01:41:18;98135.94;;;12.94;82.17
30021;BME280;16861;52.294;7.760;2023-03-24T01:43:58;98126.25;;;12.94;81.97
30021;BME280;16861;52.294;7.760;2023-03-24T01:49:38;98120.94;;;12.94;82.00
30021;BME280;16861;52.294;7.760;2023-03-24T01:52:13;98111.91;;;12.97;81.91
30021;BME280;16861;52.294;7.760;2023-03-24T01:55:04;98103.28;;;12.95;81.59
30021;BME280;16861;52.294;7.760;2023-03-24T01:57:41;98097.56;;;12.99;81.80
30021;BME280;16861;52.294;7.760;2023-03-24T02:00:14;98091.97;;;13.02;81.86
30021;BME280;16861;52.294;7.760;2023-03-24T02:02:51;98096.47;;;13.02;81.90
30021;BME280;16861;52.294;7.760;2023-03-24T02:12:18;98076.56;;;13.08;81.63
30021;BME280;16861;52.294;7.760;2023-03-24T02:14:52;98085.59;;;13.05;81.44
30021;BME280;16861;52.294;7.760;2023-03-24T02:51:13;98012.19;;;13.09;81.93
30021;BME280;16861;52.294;7.760;2023-03-24T02:58:58;98002.97;;;13.13;81.83
30021;BME280;16861;52.294;7.760;2023-03-24T03:01:39;98005.34;;;13.16;81.95
30021;BME280;16861;52.294;7.760;2023-03-24T03:07:34;97996.09;;;13.20;82.59
30021;BME280;16861;52.294;7.760;2023-03-24T03:10:11;97989.16;;;13.19;82.40
30021;BME280;16861;52.294;7.760;2023-03-24T03:12:39;97987.09;;;13.23;82.47
30021;BME280;16861;52.294;7.760;2023-03-24T03:15:30;97975.97;;;13.19;82.20
30021;BME280;16861;52.294;7.760;2023-03-24T03:18:06;97972.19;;;13.22;82.49
30021;BME280;16861;52.294;7.760;2023-03-24T03:20:40;97970.38;;;13.22;82.40
30021;BME280;16861;52.294;7.760;2023-03-24T03:23:19;97967.59;;;13.24;82.52
30021;BME280;16861;52.294;7.760;2023-03-24T03:25:51;97978.16;;;13.24;82.55
30021;BME280;16861;52.294;7.760;2023-03-24T03:28:22;97964.25;;;13.22;81.76
30021;BME280;16861;52.294;7.760;2023-03-24T03:30:57;97962.97;;;13.26;82.08
30021;BME280;16861;52.294;7.760;2023-03-24T03:33:32;97955.38;;;13.23;82.18
30021;BME280;16861;52.294;7.760;2023-03-24T03:36:21;97944.25;;;13.19;82.37
30021;BME280;16861;52.294;7.760;2023-03-24T03:41:29;97955.66;;;13.20;83.04
30021;BME280;16861;52.294;7.760;2023-03-24T03:43:56;97946.75;;;13.21;83.07
30021;BME280;16861;52.294;7.760;2023-03-24T03:46:22;97948.56;;;13.20;83.13
30021;BME280;16861;52.294;7.760;2023-03-24T03:48:49;97941.47;;;13.21;83.18
30021;BME280;16861;52.294;7.760;2023-03-24T03:51:16;97943.13;;;13.22;83.33
30021;BME280;16861;52.294;7.760;2023-03-24T03:53:56;97938.16;;;13.19;82.94
30021;BME280;16861;52.294;7.760;2023-03-24T03:56:26;97933.41;;;13.22;83.26
30021;BME280;16861;52.294;7.760;2023-03-24T03:58:54;97942.97;;;13.23;83.43
30021;BME280;16861;52.294;7.760;2023-03-24T04:01:25;97941.47;;;13.21;83.00
30021;BME280;16861;52.294;7.760;2023-03-24T04:15:10;97947.44;;;13.23;83.37
30021;BME280;16861;52.294;7.760;2023-03-24T04:18:08;97936.88;;;13.23;83.25
30021;BME280;16861;52.294;7.760;2023-03-24T04:20:46;97941.03;;;13.25;83.35
30021;BME280;16861;52.294;7.760;2023-03-24T04:23:27;97935.59;;;13.27;83.51
30021;BME280;16861;52.294;7.760;2023-03-24T04:26:08;97932.78;;;13.28;83.60
30021;BME280;16861;52.294;7.760;2023-03-24T04:31:44;97930.16;;;13.28;83.49
30021;BME280;16861;52.294;7.760;2023-03-24T04:34:23;97939.44;;;13.33;83.97
30021;BME280;16861;52.294;7.760;2023-03-24T04:36:56;97951.69;;;13.34;83.79
30021;BME280;16861;52.294;7.760;2023-03-24T04:39:29;97941.63;;;13.37;83.94
30021;BME280;16861;52.294;7.760;2023-03-24T04:42:01;97948.56;;;13.38;83.66
30021;BME280;16861;52.294;7.760;2023-03-24T04:44:30;97951.91;;;13.40;83.61
30021;BME280;16861;52.294;7.760;2023-03-24T04:47:00;97947.28;;;13.42;83.62
30021;BME280;16861;52.294;7.760;2023-03-24T04:49:28;97954.94;;;13.46;83.69
30021;BME280;16861;52.294;7.760;2023-03-24T04:51:55;97955.75;;;13.46;83.57
30021;BME280;16861;52.294;7.760;2023-03-24T04:54:22;97962.72;;;13.47;83.83
30021;BME280;16861;52.294;7.760;2023-03-24T04:56:51;97979.41;;;13.48;83.83
30021;BME280;16861;52.294;7.760;2023-03-24T04:59:18;97963.25;;;13.51;83.69
30021;BME280;16861;52.294;7.760;2023-03-24T05:01:45;97959.63;;;13.52;83.54
30021;BME280;16861;52.294;7.760;2023-03-24T05:04:23;97971.88;;;13.53;83.17
30021;BME280;16861;52.294;7.760;2023-03-24T05:06:50;97980.47;;;13.55;82.88
30021;BME280;16861;52.294;7.760;2023-03-24T05:09:20;97967.88;;;13.49;82.21
30021;BME280;16861;52.294;7.760;2023-03-24T05:11:47;97977.63;;;13.48;81.87
30021;BME280;16861;52.294;7.760;2023-03-24T05:14:14;97972.59;;;13.45;81.30
30021;BME280;16861;52.294;7.760;2023-03-24T05:16:41;97985.13;;;13.43;81.01
30021;BME280;16861;52.294;7.760;2023-03-24T05:19:08;98002.41;;;13.37;81.12
30021;BME280;16861;52.294;7.760;2023-03-24T05:21:35;98006.19;;;13.35;81.39
30021;BME280;16861;52.294;7.760;2023-03-24T05:24:02;98018.72;;;13.33;81.61
30021;BME280;16861;52.294;7.760;2023-03-24T05:26:29;98035.69;;;13.30;81.68
30021;BME280;16861;52.294;7.760;2023-03-24T05:28:59;98039.47;;;13.27;81.74
30021;BME280;16861;52.294;7.760;2023-03-24T05:31:25;98033.50;;;13.25;81.30
30021;BME280;16861;52.294;7.760;2023-03-24T05:33:52;98032.66;;;13.25;81.65
30021;BME280;16861;52.294;7.760;2023-03-24T05:36:19;98050.50;;;13.23;81.68
30021;BME280;16861;52.294;7.760;2023-03-24T05:38:46;98053.41;;;13.20;81.20
30021;BME280;16861;52.294;7.760;2023-03-24T05:41:12;98069.41;;;13.18;81.28
30021;BME280;16861;52.294;7.760;2023-03-24T05:43:39;98081.09;;;13.15;81.07
30021;BME280;16861;52.294;7.760;2023-03-24T05:46:06;98083.03;;;13.13;80.72
30021;BME280;16861;52.294;7.760;2023-03-24T05:48:33;98092.94;;;13.11;80.82
30021;BME280;16861;52.294;7.760;2023-03-24T05:50:59;98110.72;;;13.09;80.97
30021;BME280;16861;52.294;7.760;2023-03-24T05:53:26;98111.84;;;13.07;80.36
30021;BME280;16861;52.294;7.760;2023-03-24T05:55:52;98115.63;;;13.04;80.23
30021;BME280;16861;52.294;7.760;2023-03-24T05:58:19;98122.03;;;13.01;79.97
30021;BME280;16861;52.294;7.760;2023-03-24T06:00:47;98125.13;;;12.97;79.34
30021;BME280;16861;52.294;7.760;2023-03-24T06:03:13;98135.09;;;12.93;79.08
30021;BME280;16861;52.294;7.760;2023-03-24T06:05:43;98130.28;;;12.88;79.00
30021;BME280;16861;52.294;7.760;2023-03-24T06:08:11;98143.88;;;12.84;78.90
30021;BME280;16861;52.294;7.760;2023-03-24T06:10:38;98138.06;;;12.80;79.28
30021;BME280;16861;52.294;7.760;2023-03-24T06:13:06;98148.22;;;12.75;79.16
30021;BME280;16861;52.294;7.760;2023-03-24T06:15:35;98155.56;;;12.71;79.29
30021;BME280;16861;52.294;7.760;2023-03-24T06:18:01;98161.16;;;12.68;79.00
30021;BME280;16861;52.294;7.760;2023-03-24T06:20:30;98165.06;;;12.64;78.48
30021;BME280;16861;52.294;7.760;2023-03-24T06:22:57;98176.88;;;12.60;78.52
30021;BME280;16861;52.294;7.760;2023-03-24T06:25:25;98180.91;;;12.54;77.99
30021;BME280;16861;52.294;7.760;2023-03-24T06:27:54;98192.69;;;12.50;77.98
30021;BME280;16861;52.294;7.760;2023-03-24T06:30:21;98199.22;;;12.46;78.49
30021;BME280;16861;52.294;7.760;2023-03-24T06:32:47;98198.81;;;12.41;78.06
30021;BME280;16861;52.294;7.760;2023-03-24T06:35:14;98204.34;;;12.37;78.24
30021;BME280;16861;52.294;7.760;2023-03-24T06:37:42;98210.59;;;12.36;78.21
30021;BME280;16861;52.294;7.760;2023-03-24T06:40:10;98211.72;;;12.34;78.63
30021;BME280;16861;52.294;7.760;2023-03-24T06:42:40;98201.97;;;12.34;78.58
30021;BME280;16861;52.294;7.760;2023-03-24T06:45:16;98212.66;;;12.33;78.97
30021;BME280;16861;52.294;7.760;2023-03-24T06:47:52;98231.84;;;12.35;79.29
30021;BME280;16861;52.294;7.760;2023-03-24T06:50:23;98220.59;;;12.33;78.88
30021;BME280;16861;52.294;7.760;2023-03-24T06:52:52;98221.44;;;12.33;78.89
30021;BME280;16861;52.294;7.760;2023-03-24T06:55:19;98225.03;;;12.32;78.85
30021;BME280;16861;52.294;7.760;2023-03-24T06:57:47;98238.09;;;12.34;78.77
30021;BME280;16861;52.294;7.760;2023-03-24T07:00:14;98229.34;;;12.33;78.53
30021;BME280;16861;52.294;7.760;2023-03-24T07:02:41;98249.78;;;12.31;77.55
30021;BME280;16861;52.294;7.760;2023-03-24T07:05:08;98250.59;;;12.32;77.96
30021;BME280;16861;52.294;7.760;2023-03-24T07:07:48;98249.06;;;12.29;75.14
30021;BME280;16861;52.294;7.760;2023-03-24T07:10:18;98244.50;;;12.31;77.54
30021;BME280;16861;52.294;7.760;2023-03-24T07:12:50;98250.03;;;12.28;75.95
30021;BME280;16861;52.294;7.760;2023-03-24T07:15:38;98255.31;;;12.28;74.98
30021;BME280;16861;52.294;7.760;2023-03-24T07:18:06;98259.91;;;12.36;78.66
30021;BME280;16861;52.294;7.760;2023-03-24T07:20:32;98267.69;;;12.37;78.24
30021;BME280;16861;52.294;7.760;2023-03-24T07:22:59;98277.25;;;12.38;76.26
30021;BME280;16861;52.294;7.760;2023-03-24T07:25:27;98262.13;;;12.41;77.10
30021;BME280;16861;52.294;7.760;2023-03-24T07:27:54;98268.09;;;12.43;77.14
30021;BME280;16861;52.294;7.760;2023-03-24T07:30:22;98265.47;;;12.43;76.95
30021;BME280;16861;52.294;7.760;2023-03-24T07:33:03;98282.81;;;12.45;76.61
30021;BME280;16861;52.294;7.760;2023-03-24T07:35:32;98280.31;;;12.44;76.52
30021;BME280;16861;52.294;7.760;2023-03-24T07:37:59;98272.28;;;12.45;76.67
30021;BME280;16861;52.294;7.760;2023-03-24T07:40:27;98282.00;;;12.45;76.68
30021;BME280;16861;52.294;7.760;2023-03-24T07:42:58;98291.59;;;12.46;75.93
30021;BME280;16861;52.294;7.760;2023-03-24T07:45:26;98294.09;;;12.47;76.79
30021;BME280;16861;52.294;7.760;2023-03-24T07:47:53;98288.81;;;12.47;76.94
30021;BME280;16861;52.294;7.760;2023-03-24T07:50:22;98285.19;;;12.48;77.07
30021;BME280;16861;52.294;7.760;2023-03-24T07:52:49;98293.84;;;12.50;76.69
30021;BME280;16861;52.294;7.760;2023-03-24T07:55:16;98291.88;;;12.53;76.99
30021;BME280;16861;52.294;7.760;2023-03-24T07:57:47;98298.00;;;12.53;75.82
30021;BME280;16861;52.294;7.760;2023-03-24T08:00:15;98294.38;;;12.54;75.85
30021;BME280;16861;52.294;7.760;2023-03-24T08:02:59;98300.66;;;12.53;74.17
30021;BME280;16861;52.294;7.760;2023-03-24T08:05:28;98290.63;;;12.57;76.05
30021;BME280;16861;52.294;7.760;2023-03-24T08:07:56;98299.25;;;12.59;76.72
30021;BME280;16861;52.294;7.760;2023-03-24T08:10:26;98299.94;;;12.61;76.57
30021;BME280;16861;52.294;7.760;2023-03-24T08:12:54;98314.69;;;12.63;76.88
30021;BME280;16861;52.294;7.760;2023-03-24T08:15:21;98322.47;;;12.65;76.48
30021;BME280;16861;52.294;7.760;2023-03-24T08:17:49;98321.34;;;12.68;76.95
30021;BME280;16861;52.294;7.760;2023-03-24T08:20:17;98323.00;;;12.69;76.37
30021;BME280;16861;52.294;7.760;2023-03-24T08:22:46;98322.75;;;12.72;75.91
30021;BME280;16861;52.294;7.760;2023-03-24T08:25:21;98320.97;;;12.72;75.63
30021;BME280;16861;52.294;7.760;2023-03-24T08:27:52;98337.63;;;12.73;74.04
30021;BME280;16861;52.294;7.760;2023-03-24T08:30:24;98334.72;;;12.76;75.56
30021;BME280;16861;52.294;7.760;2023-03-24T08:32:53;98328.44;;;12.77;75.31
30021;BME280;16861;52.294;7.760;2023-03-24T08:35:37;98339.00;;;12.77;74.11
30021;BME280;16861;52.294;7.760;2023-03-24T08:38:28;98333.19;;;12.83;74.21
30021;BME280;16861;52.294;7.760;2023-03-24T08:41:18;98325.56;;;12.90;76.37
30021;BME280;16861;52.294;7.760;2023-03-24T08:44:09;98321.09;;;12.90;73.42
30021;BME280;16861;52.294;7.760;2023-03-24T08:46:36;98323.88;;;12.99;76.18
30021;BME280;16861;52.294;7.760;2023-03-24T08:49:04;98340.13;;;13.04;76.03
30021;BME280;16861;52.294;7.760;2023-03-24T08:51:44;98339.03;;;13.07;72.75
30021;BME280;16861;52.294;7.760;2023-03-24T08:54:10;98341.94;;;13.13;74.53
30021;BME280;16861;52.294;7.760;2023-03-24T08:56:38;98341.69;;;13.16;75.17
30021;BME280;16861;52.294;7.760;2023-03-24T08:59:05;98348.22;;;13.22;75.53
30021;BME280;16861;52.294;7.760;2023-03-24T09:01:32;98357.41;;;13.28;75.02
30021;BME280;16861;52.294;7.760;2023-03-24T09:04:01;98345.56;;;13.32;75.19
30021;BME280;16861;52.294;7.760;2023-03-24T09:06:29;98358.34;;;13.37;75.14
30021;BME280;16861;52.294;7.760;2023-03-24T09:08:56;98355.31;;;13.41;75.33
30021;BME280;16861;52.294;7.760;2023-03-24T09:11:23;98348.75;;;13.46;74.67
30021;BME280;16861;52.294;7.760;2023-03-24T09:13:49;98362.78;;;13.46;72.79
30021;BME280;16861;52.294;7.760;2023-03-24T09:16:17;98368.06;;;13.46;70.70
30021;BME280;16861;52.294;7.760;2023-03-24T09:18:44;98389.22;;;13.46;71.72
30021;BME280;16861;52.294;7.760;2023-03-24T09:21:12;98377.84;;;13.46;72.00
30021;BME280;16861;52.294;7.760;2023-03-24T09:23:38;98376.00;;;13.46;71.29
30021;BME280;16861;52.294;7.760;2023-03-24T09:26:05;98398.00;;;13.47;71.15
30021;BME280;16861;52.294;7.760;2023-03-24T09:28:33;98384.53;;;13.50;71.36
30021;BME280;16861;52.294;7.760;2023-03-24T09:31:02;98372.84;;;13.52;71.35
30021;BME280;16861;52.294;7.760;2023-03-24T09:33:29;98367.28;;;13.55;71.77
30021;BME280;16861;52.294;7.760;2023-03-24T09:35:57;98377.44;;;13.60;72.25
30021;BME280;16861;52.294;7.760;2023-03-24T09:38:26;98370.06;;;13.64;71.26
30021;BME280;16861;52.294;7.760;2023-03-24T09:40:56;98381.84;;;13.70;71.09
30021;BME280;16861;52.294;7.760;2023-03-24T09:43:43;98380.19;;;13.68;65.91
30021;BME280;16861;52.294;7.760;2023-03-24T09:46:24;98381.44;;;13.74;70.36
30021;BME280;16861;52.294;7.760;2023-03-24T09:48:54;98392.56;;;13.78;68.70
30021;BME280;16861;52.294;7.760;2023-03-24T09:51:24;98385.75;;;13.85;71.19
30021;BME280;16861;52.294;7.760;2023-03-24T09:56:37;98382.66;;;13.90;70.63
30021;BME280;16861;52.294;7.760;2023-03-24T09:59:09;98399.75;;;13.96;71.51
30021;BME280;16861;52.294;7.760;2023-03-24T10:01:37;98392.28;;;13.91;61.48
30021;BME280;16861;52.294;7.760;2023-03-24T10:04:06;98397.44;;;13.92;68.98
30021;BME280;16861;52.294;7.760;2023-03-24T10:06:40;98395.06;;;13.89;68.19
30021;BME280;16861;52.294;7.760;2023-03-24T10:09:23;98399.63;;;13.87;67.02
30021;BME280;16861;52.294;7.760;2023-03-24T10:20:35;98395.34;;;13.86;69.24
30021;BME280;16861;52.294;7.760;2023-03-24T10:28:35;98405.03;;;14.15;68.29
30021;BME280;16861;52.294;7.760;2023-03-24T10:31:09;98398.00;;;14.24;69.30
30021;BME280;16861;52.294;7.760;2023-03-24T10:33:38;98405.25;;;14.32;65.65
30021;BME280;16861;52.294;7.760;2023-03-24T10:36:19;98416.88;;;14.49;70.85
30021;BME280;16861;52.294;7.760;2023-03-24T10:38:46;98398.69;;;14.64;74.53
30021;BME280;16861;52.294;7.760;2023-03-24T10:41:21;98399.72;;;14.81;72.17
30021;BME280;16861;52.294;7.760;2023-03-24T10:43:53;98402.25;;;15.01;71.44
30021;BME280;16861;52.294;7.760;2023-03-24T10:46:22;98414.53;;;15.20;63.11
30021;BME280;16861;52.294;7.760;2023-03-24T10:51:37;98417.66;;;15.52;67.33
30021;BME280;16861;52.294;7.760;2023-03-24T10:54:13;98416.28;;;15.48;61.91
30021;BME280;16861;52.294;7.760;2023-03-24T10:59:52;98429.41;;;15.31;62.42
30021;BME280;16861;52.294;7.760;2023-03-24T11:02:31;98426.50;;;15.24;64.49
30021;BME280;16861;52.294;7.760;2023-03-24T11:07:31;98434.59;;;15.05;60.90
30021;BME280;16861;52.294;7.760;2023-03-24T11:10:25;98445.84;;;14.89;60.47
30021;BME280;16861;52.294;7.760;2023-03-24T11:15:25;98447.28;;;14.73;66.51
30021;BME280;16861;52.294;7.760;2023-03-24T11:18:00;98434.06;;;14.73;69.67
30021;BME280;16861;52.294;7.760;2023-03-24T11:20:35;98453.28;;;14.75;70.25
30021;BME280;16861;52.294;7.760;2023-03-24T11:23:15;98447.41;;;14.81;68.67
30021;BME280;16861;52.294;7.760;2023-03-24T11:25:52;98448.19;;;14.92;66.50
30021;BME280;16861;52.294;7.760;2023-03-24T11:28:27;98462.34;;;15.01;69.29
30021;BME280;16861;52.294;7.760;2023-03-24T11:30:54;98456.47;;;15.07;69.88
30021;BME280;16861;52.294;7.760;2023-03-24T11:33:25;98455.94;;;15.03;61.98
30021;BME280;16861;52.294;7.760;2023-03-24T11:36:07;98463.31;;;15.09;67.24
30021;BME280;16861;52.294;7.760;2023-03-24T11:38:40;98453.94;;;15.15;69.70
30021;BME280;16861;52.294;7.760;2023-03-24T11:41:18;98454.88;;;15.14;62.78
30021;BME280;16861;52.294;7.760;2023-03-24T11:43:46;98450.38;;;15.24;68.95
30021;BME280;16861;52.294;7.760;2023-03-24T11:46:17;98455.38;;;15.28;64.37
30021;BME280;16861;52.294;7.760;2023-03-24T11:48:55;98469.44;;;15.28;62.69
30021;BME280;16861;52.294;7.760;2023-03-24T11:51:40;98462.63;;;15.26;62.28
30021;BME280;16861;52.294;7.760;2023-03-24T11:54:12;98457.72;;;15.31;66.52
30021;BME280;16861;52.294;7.760;2023-03-24T11:56:57;98450.06;;;15.46;65.66
30021;BME280;16861;52.294;7.760;2023-03-24T11:59:26;98448.59;;;15.88;77.21
30021;BME280;16861;52.294;7.760;2023-03-24T12:02:11;98440.69;;;16.41;71.51
30021;BME280;16861;52.294;7.760;2023-03-24T12:04:56;98438.16;;;17.09;71.29
30021;BME280;16861;52.294;7.760;2023-03-24T12:08:00;98450.19;;;17.71;62.06
30021;BME280;16861;52.294;7.760;2023-03-24T12:10:38;98441.03;;;18.16;65.08
30021;BME280;16861;52.294;7.760;2023-03-24T12:13:11;98435.00;;;18.39;60.16
30021;BME280;16861;52.294;7.760;2023-03-24T12:16:20;98435.09;;;18.54;62.78
30021;BME280;16861;52.294;7.760;2023-03-24T12:22:15;98427.03;;;18.30;55.25
30021;BME280;16861;52.294;7.760;2023-03-24T12:30:37;98436.03;;;17.71;58.52
30021;BME280;16861;52.294;7.760;2023-03-24T12:39:12;98460.00;;;17.46;53.63
30021;BME280;16861;52.294;7.760;2023-03-24T12:47:10;98470.19;;;16.73;56.03
30021;BME280;16861;52.294;7.760;2023-03-24T12:53:03;98451.56;;;16.03;56.20
30021;BME280;16861;52.294;7.760;2023-03-24T12:58:11;98449.47;;;15.34;59.66
30021;BME280;16861;52.294;7.760;2023-03-24T13:03:57;98464.13;;;14.82;61.79
30021;BME280;16861;52.294;7.760;2023-03-24T13:06:33;98460.66;;;14.81;61.50
30021;BME280;16861;52.294;7.760;2023-03-24T13:12:02;98461.81;;;14.69;58.10
30021;BME280;16861;52.294;7.760;2023-03-24T13:14:45;98459.59;;;14.64;60.29
30021;BME280;16861;52.294;7.760;2023-03-24T13:17:23;98448.47;;;14.61;63.62
30021;BME280;16861;52.294;7.760;2023-03-24T13:19:54;98455.06;;;14.75;70.65
30021;BME280;16861;52.294;7.760;2023-03-24T13:22:22;98452.00;;;15.07;74.00
30021;BME280;16861;52.294;7.760;2023-03-24T13:24:50;98440.97;;;15.48;73.37
30021;BME280;16861;52.294;7.760;2023-03-24T13:27:23;98444.75;;;15.82;66.23
30021;BME280;16861;52.294;7.760;2023-03-24T13:30:03;98449.59;;;16.05;62.96
30021;BME280;16861;52.294;7.760;2023-03-24T13:32:45;98450.31;;;16.15;61.10
30021;BME280;16861;52.294;7.760;2023-03-24T13:35:37;98444.50;;;16.12;59.76
30021;BME280;16861;52.294;7.760;2023-03-24T13:38:10;98451.25;;;16.06;58.76
30021;BME280;16861;52.294;7.760;2023-03-24T13:40:39;98449.69;;;15.95;63.81
30021;BME280;16861;52.294;7.760;2023-03-24T13:43:11;98437.53;;;15.74;62.63
30021;BME280;16861;52.294;7.760;2023-03-24T13:45:44;98460.31;;;15.59;62.40
30021;BME280;16861;52.294;7.760;2023-03-24T13:51:02;98460.84;;;15.26;63.93
30021;BME280;16861;52.294;7.760;2023-03-24T13:55:58;98465.56;;;15.04;66.93
30021;BME280;16861;52.294;7.760;2023-03-24T13:59:04;98466.03;;;14.90;65.28
30021;BME280;16861;52.294;7.760;2023-03-24T14:01:36;98471.94;;;14.83;67.93
30021;BME280;16861;52.294;7.760;2023-03-24T14:04:26;98472.84;;;14.64;64.03
30021;BME280;16861;52.294;7.760;2023-03-24T14:06:57;98480.94;;;14.53;66.40
30021;BME280;16861;52.294;7.760;2023-03-24T14:09:31;98483.66;;;14.33;64.64
30021;BME280;16861;52.294;7.760;2023-03-24T14:14:34;98501.69;;;14.00;65.64
30021;BME280;16861;52.294;7.760;2023-03-24T14:19:31;98511.44;;;13.70;68.07
30021;BME280;16861;52.294;7.760;2023-03-24T14:24:40;98504.81;;;13.34;69.28
30021;BME280;16861;52.294;7.760;2023-03-24T14:27:21;98493.25;;;13.15;68.93
30021;BME280;16861;52.294;7.760;2023-03-24T14:29:51;98486.41;;;13.03;70.03
30021;BME280;16861;52.294;7.760;2023-03-24T14:32:19;98499.56;;;12.93;71.16
30021;BME280;16861;52.294;7.760;2023-03-24T14:34:58;98506.06;;;12.79;70.64
30021;BME280;16861;52.294;7.760;2023-03-24T14:37:26;98503.69;;;12.76;71.47
30021;BME280;16861;52.294;7.760;2023-03-24T14:39:56;98502.97;;;12.64;70.58
30021;BME280;16861;52.294;7.760;2023-03-24T14:45:52;98509.78;;;12.45;69.77
30021;BME280;16861;52.294;7.760;2023-03-24T14:48:30;98499.03;;;12.37;70.15
30021;BME280;16861;52.294;7.760;2023-03-24T14:51:02;98496.94;;;12.31;72.13
30021;BME280;16861;52.294;7.760;2023-03-24T14:53:34;98484.28;;;12.24;72.33
30021;BME280;16861;52.294;7.760;2023-03-24T14:56:05;98493.00;;;12.25;74.77
30021;BME280;16861;52.294;7.760;2023-03-24T14:58:35;98480.72;;;12.35;77.20
30021;BME280;16861;52.294;7.760;2023-03-24T15:01:04;98475.03;;;12.61;80.92
30021;BME280;16861;52.294;7.760;2023-03-24T15:03:41;98487.09;;;12.95;77.76
30021;BME280;16861;52.294;7.760;2023-03-24T15:06:17;98479.25;;;13.35;79.53
30021;BME280;16861;52.294;7.760;2023-03-24T15:11:14;98479.06;;;14.35;84.04
30021;BME280;16861;52.294;7.760;2023-03-24T15:18:50;98469.44;;;16.19;67.62
30021;BME280;16861;52.294;7.760;2023-03-24T15:21:37;98471.31;;;16.62;71.43
30021;BME280;16861;52.294;7.760;2023-03-24T15:26:54;98466.34;;;16.59;65.51
30021;BME280;16861;52.294;7.760;2023-03-24T15:29:21;98466.34;;;16.32;65.25
30021;BME280;16861;52.294;7.760;2023-03-24T15:32:01;98460.56;;;15.92;62.70
30021;BME280;16861;52.294;7.760;2023-03-24T15:34:50;98477.50;;;15.55;61.93
30021;BME280;16861;52.294;7.760;2023-03-24T15:37:37;98470.22;;;15.20;63.32
30021;BME280;16861;52.294;7.760;2023-03-24T15:43:04;98476.59;;;14.62;67.03
30021;BME280;16861;52.294;7.760;2023-03-24T15:45:52;98484.47;;;14.33;65.39
30021;BME280;16861;52.294;7.760;2023-03-24T15:48:36;98485.09;;;14.17;69.69
30021;BME280;16861;52.294;7.760;2023-03-24T15:51:12;98494.19;;;13.95;68.20
30021;BME280;16861;52.294;7.760;2023-03-24T15:53:44;98479.69;;;13.79;69.79
30021;BME280;16861;52.294;7.760;2023-03-24T15:58:53;98485.50;;;13.43;70.67
30021;BME280;16861;52.294;7.760;2023-03-24T16:01:25;98466.13;;;13.23;70.88
30021;BME280;16861;52.294;7.760;2023-03-24T16:03:58;98452.34;;;13.10;72.23
30021;BME280;16861;52.294;7.760;2023-03-24T16:06:33;98453.84;;;12.93;71.24
30021;BME280;16861;52.294;7.760;2023-03-24T16:12:32;98445.19;;;12.71;73.42
30021;BME280;16861;52.294;7.760;2023-03-24T16:14:59;98439.72;;;12.62;73.31
30021;BME280;16861;52.294;7.760;2023-03-24T16:17:26;98443.00;;;12.55;73.54
30021;BME280;16861;52.294;7.760;2023-03-24T16:19:53;98446.19;;;12.48;74.10
30021;BME280;16861;52.294;7.760;2023-03-24T16:22:19;98448.41;;;12.43;74.20
30021;BME280;16861;52.294;7.760;2023-03-24T16:24:46;98446.88;;;12.41;74.51
30021;BME280;16861;52.294;7.760;2023-03-24T16:27:15;98448.09;;;12.36;75.00
30021;BME280;16861;52.294;7.760;2023-03-24T16:29:42;98449.06;;;12.35;74.75
30021;BME280;16861;52.294;7.760;2023-03-24T16:32:11;98450.97;;;12.33;72.98
30021;BME280;16861;52.294;7.760;2023-03-24T16:35:09;98451.13;;;12.32;72.36